Swisshome, Oregon
Current Conditions -  °F | °C
As of 6:54 AM on Monday 24 Nov 2014 (Local Time) from KEUG Reporting Station
Broken Clouds Broken Clouds  
Wind Chill: 34°   Ceiling: 25000
Heat Index: 39°   Visibility: 10mi
Dew Point: 37°   Wind: 7mph
Humidity: 93%   Direction: 210°SSW
Pressure: 30.38"   Gusts: NA
Location:  44.06°N, 123.8°W
Report Text: KEUG 241454Z 21006KT 10SM FEW200 BKN250 04/03 A3038 RMK AO2 SLP288 T00390028 55002
Loading
Personal Weather Stations






























Interactive Weather Map New forecast layout! Learn more

10-Day Weather Forecast

Advertisements
Track Severe Weather on mobile